sensor_id;sensor_type;location;lat;lon;timestamp;P1;P2;P0
69849;PMS5003;57144;39.652;-75.770;2022-07-21T00:01:53;25;24;
69849;PMS5003;57144;39.652;-75.770;2022-07-21T00:04:22;24;23;
69849;PMS5003;57144;39.652;-75.770;2022-07-21T00:06:52;24;22;
69849;PMS5003;57144;39.652;-75.770;2022-07-21T00:09:23;24;24;
69849;PMS5003;57144;39.652;-75.770;2022-07-21T00:11:53;25;25;
69849;PMS5003;57144;39.652;-75.770;2022-07-21T00:14:24;26;25;
69849;PMS5003;57144;39.652;-75.770;2022-07-21T00:16:55;27;25;
69849;PMS5003;57144;39.652;-75.770;2022-07-21T00:19:25;24;23;
69849;PMS5003;57144;39.652;-75.770;2022-07-21T00:21:56;26;24;
69849;PMS5003;57144;39.652;-75.770;2022-07-21T00:24:27;24;24;
69849;PMS5003;57144;39.652;-75.770;2022-07-21T00:26:58;27;25;
69849;PMS5003;57144;39.652;-75.770;2022-07-21T00:29:28;27;26;
69849;PMS5003;57144;39.652;-75.770;2022-07-21T00:31:59;25;25;
69849;PMS5003;57144;39.652;-75.770;2022-07-21T00:34:30;25;24;
69849;PMS5003;57144;39.652;-75.770;2022-07-21T00:37:00;24;24;
69849;PMS5003;57144;39.652;-75.770;2022-07-21T00:39:31;26;26;
69849;PMS5003;57144;39.652;-75.770;2022-07-21T00:42:02;27;26;
69849;PMS5003;57144;39.652;-75.770;2022-07-21T00:44:33;25;24;
69849;PMS5003;57144;39.652;-75.770;2022-07-21T00:47:04;25;25;
69849;PMS5003;57144;39.652;-75.770;2022-07-21T00:49:34;27;27;
69849;PMS5003;57144;39.652;-75.770;2022-07-21T00:52:05;24;24;
69849;PMS5003;57144;39.652;-75.770;2022-07-21T00:54:35;23;21;
69849;PMS5003;57144;39.652;-75.770;2022-07-21T00:57:06;26;25;
69849;PMS5003;57144;39.652;-75.770;2022-07-21T00:59:37;26;26;
69849;PMS5003;57144;39.652;-75.770;2022-07-21T01:02:08;25;24;
69849;PMS5003;57144;39.652;-75.770;2022-07-21T01:04:39;25;25;
69849;PMS5003;57144;39.652;-75.770;2022-07-21T01:07:09;27;24;
69849;PMS5003;57144;39.652;-75.770;2022-07-21T01:09:40;25;24;
69849;PMS5003;57144;39.652;-75.770;2022-07-21T01:12:10;26;24;
69849;PMS5003;57144;39.652;-75.770;2022-07-21T01:14:41;25;24;
69849;PMS5003;57144;39.652;-75.770;2022-07-21T01:17:12;26;24;
69849;PMS5003;57144;39.652;-75.770;2022-07-21T01:19:43;24;22;
69849;PMS5003;57144;39.652;-75.770;2022-07-21T01:22:13;25;24;
69849;PMS5003;57144;39.652;-75.770;2022-07-21T01:24:44;23;23;
69849;PMS5003;57144;39.652;-75.770;2022-07-21T01:27:14;26;23;
69849;PMS5003;57144;39.652;-75.770;2022-07-21T01:29:45;25;24;
69849;PMS5003;57144;39.652;-75.770;2022-07-21T01:32:16;27;25;
69849;PMS5003;57144;39.652;-75.770;2022-07-21T01:34:47;27;27;
69849;PMS5003;57144;39.652;-75.770;2022-07-21T01:37:20;23;23;
69849;PMS5003;57144;39.652;-75.770;2022-07-21T01:39:48;25;24;
69849;PMS5003;57144;39.652;-75.770;2022-07-21T01:42:19;25;25;
69849;PMS5003;57144;39.652;-75.770;2022-07-21T01:44:49;26;26;
69849;PMS5003;57144;39.652;-75.770;2022-07-21T01:47:21;25;24;
69849;PMS5003;57144;39.652;-75.770;2022-07-21T01:49:51;23;22;
69849;PMS5003;57144;39.652;-75.770;2022-07-21T01:52:21;22;22;
69849;PMS5003;57144;39.652;-75.770;2022-07-21T01:54:52;23;23;
69849;PMS5003;57144;39.652;-75.770;2022-07-21T01:57:23;22;21;
69849;PMS5003;57144;39.652;-75.770;2022-07-21T01:59:54;22;22;
69849;PMS5003;57144;39.652;-75.770;2022-07-21T02:02:24;22;21;
69849;PMS5003;57144;39.652;-75.770;2022-07-21T02:04:55;21;21;
69849;PMS5003;57144;39.652;-75.770;2022-07-21T02:07:26;22;21;
69849;PMS5003;57144;39.652;-75.770;2022-07-21T02:09:56;22;20;
69849;PMS5003;57144;39.652;-75.770;2022-07-21T02:12:27;23;22;
69849;PMS5003;57144;39.652;-75.770;2022-07-21T02:14:58;21;20;
69849;PMS5003;57144;39.652;-75.770;2022-07-21T02:17:29;19;19;
69849;PMS5003;57144;39.652;-75.770;2022-07-21T02:19:59;21;21;
69849;PMS5003;57144;39.652;-75.770;2022-07-21T02:22:30;22;21;
69849;PMS5003;57144;39.652;-75.770;2022-07-21T02:25:00;22;20;
69849;PMS5003;57144;39.652;-75.770;2022-07-21T02:27:31;21;20;
69849;PMS5003;57144;39.652;-75.770;2022-07-21T02:30:02;24;23;
69849;PMS5003;57144;39.652;-75.770;2022-07-21T02:32:33;23;23;
69849;PMS5003;57144;39.652;-75.770;2022-07-21T02:35:04;21;19;
69849;PMS5003;57144;39.652;-75.770;2022-07-21T02:37:34;21;21;
69849;PMS5003;57144;39.652;-75.770;2022-07-21T02:40:05;22;21;
69849;PMS5003;57144;39.652;-75.770;2022-07-21T02:42:36;21;20;
69849;PMS5003;57144;39.652;-75.770;2022-07-21T02:45:07;22;22;
69849;PMS5003;57144;39.652;-75.770;2022-07-21T02:50:08;20;20;
69849;PMS5003;57144;39.652;-75.770;2022-07-21T02:52:38;21;21;
69849;PMS5003;57144;39.652;-75.770;2022-07-21T02:55:09;20;20;
69849;PMS5003;57144;39.652;-75.770;2022-07-21T02:57:40;19;19;
69849;PMS5003;57144;39.652;-75.770;2022-07-21T03:00:11;22;20;
69849;PMS5003;57144;39.652;-75.770;2022-07-21T03:02:41;19;19;
69849;PMS5003;57144;39.652;-75.770;2022-07-21T03:05:12;20;18;
69849;PMS5003;57144;39.652;-75.770;2022-07-21T03:07:43;20;19;
69849;PMS5003;57144;39.652;-75.770;2022-07-21T03:10:14;21;20;
69849;PMS5003;57144;39.652;-75.770;2022-07-21T03:12:44;21;18;
69849;PMS5003;57144;39.652;-75.770;2022-07-21T03:15:15;21;21;
69849;PMS5003;57144;39.652;-75.770;2022-07-21T03:17:46;21;19;
69849;PMS5003;57144;39.652;-75.770;2022-07-21T03:20:16;20;18;
69849;PMS5003;57144;39.652;-75.770;2022-07-21T03:22:47;20;20;
69849;PMS5003;57144;39.652;-75.770;2022-07-21T03:25:18;20;20;
69849;PMS5003;57144;39.652;-75.770;2022-07-21T03:27:49;20;19;
69849;PMS5003;57144;39.652;-75.770;2022-07-21T03:30:20;19;18;
69849;PMS5003;57144;39.652;-75.770;2022-07-21T03:32:50;19;18;
69849;PMS5003;57144;39.652;-75.770;2022-07-21T03:35:21;20;20;
69849;PMS5003;57144;39.652;-75.770;2022-07-21T03:37:53;22;20;
69849;PMS5003;57144;39.652;-75.770;2022-07-21T03:40:23;22;21;
69849;PMS5003;57144;39.652;-75.770;2022-07-21T03:42:54;21;20;
69849;PMS5003;57144;39.652;-75.770;2022-07-21T03:45:24;21;21;
69849;PMS5003;57144;39.652;-75.770;2022-07-21T03:47:56;21;20;
69849;PMS5003;57144;39.652;-75.770;2022-07-21T03:50:25;19;18;
69849;PMS5003;57144;39.652;-75.770;2022-07-21T03:52:56;20;20;
69849;PMS5003;57144;39.652;-75.770;2022-07-21T03:55:26;20;18;
69849;PMS5003;57144;39.652;-75.770;2022-07-21T03:57:58;20;19;
69849;PMS5003;57144;39.652;-75.770;2022-07-21T04:00:29;19;19;
69849;PMS5003;57144;39.652;-75.770;2022-07-21T04:02:58;21;19;
69849;PMS5003;57144;39.652;-75.770;2022-07-21T04:05:29;21;21;
69849;PMS5003;57144;39.652;-75.770;2022-07-21T04:07:59;19;19;
69849;PMS5003;57144;39.652;-75.770;2022-07-21T04:10:31;19;18;
69849;PMS5003;57144;39.652;-75.770;2022-07-21T04:13:02;20;20;
69849;PMS5003;57144;39.652;-75.770;2022-07-21T04:15:32;20;19;
69849;PMS5003;57144;39.652;-75.770;2022-07-21T04:18:03;20;19;
69849;PMS5003;57144;39.652;-75.770;2022-07-21T04:20:33;20;20;
69849;PMS5003;57144;39.652;-75.770;2022-07-21T04:23:03;21;19;
69849;PMS5003;57144;39.652;-75.770;2022-07-21T04:25:34;18;18;
69849;PMS5003;57144;39.652;-75.770;2022-07-21T04:28:05;18;17;
69849;PMS5003;57144;39.652;-75.770;2022-07-21T04:30:35;20;20;
69849;PMS5003;57144;39.652;-75.770;2022-07-21T04:33:06;20;18;
69849;PMS5003;57144;39.652;-75.770;2022-07-21T04:35:36;20;20;
69849;PMS5003;57144;39.652;-75.770;2022-07-21T04:38:08;20;19;
69849;PMS5003;57144;39.652;-75.770;2022-07-21T04:40:38;20;19;
69849;PMS5003;57144;39.652;-75.770;2022-07-21T04:43:08;22;20;
69849;PMS5003;57144;39.652;-75.770;2022-07-21T04:45:39;18;17;
69849;PMS5003;57144;39.652;-75.770;2022-07-21T04:48:10;20;19;
69849;PMS5003;57144;39.652;-75.770;2022-07-21T04:50:40;20;19;
69849;PMS5003;57144;39.652;-75.770;2022-07-21T04:53:11;18;18;
69849;PMS5003;57144;39.652;-75.770;2022-07-21T04:55:42;20;19;
69849;PMS5003;57144;39.652;-75.770;2022-07-21T04:58:12;20;19;
69849;PMS5003;57144;39.652;-75.770;2022-07-21T05:00:43;21;20;
69849;PMS5003;57144;39.652;-75.770;2022-07-21T05:03:14;21;20;
69849;PMS5003;57144;39.652;-75.770;2022-07-21T05:05:44;18;17;
69849;PMS5003;57144;39.652;-75.770;2022-07-21T05:08:15;22;19;
69849;PMS5003;57144;39.652;-75.770;2022-07-21T05:10:45;23;22;
69849;PMS5003;57144;39.652;-75.770;2022-07-21T05:13:16;19;19;
69849;PMS5003;57144;39.652;-75.770;2022-07-21T05:15:47;20;20;
69849;PMS5003;57144;39.652;-75.770;2022-07-21T05:18:17;21;20;
69849;PMS5003;57144;39.652;-75.770;2022-07-21T05:20:48;21;19;
69849;PMS5003;57144;39.652;-75.770;2022-07-21T05:23:18;19;18;
69849;PMS5003;57144;39.652;-75.770;2022-07-21T05:25:49;19;19;
69849;PMS5003;57144;39.652;-75.770;2022-07-21T05:28:20;20;20;
69849;PMS5003;57144;39.652;-75.770;2022-07-21T05:30:50;21;20;
69849;PMS5003;57144;39.652;-75.770;2022-07-21T05:33:21;21;21;
69849;PMS5003;57144;39.652;-75.770;2022-07-21T05:35:51;21;19;
69849;PMS5003;57144;39.652;-75.770;2022-07-21T05:38:22;17;17;
69849;PMS5003;57144;39.652;-75.770;2022-07-21T05:40:53;21;20;
69849;PMS5003;57144;39.652;-75.770;2022-07-21T05:43:23;22;20;
69849;PMS5003;57144;39.652;-75.770;2022-07-21T05:45:54;20;20;
69849;PMS5003;57144;39.652;-75.770;2022-07-21T05:48:25;20;20;
69849;PMS5003;57144;39.652;-75.770;2022-07-21T05:50:55;21;21;
69849;PMS5003;57144;39.652;-75.770;2022-07-21T05:53:26;19;19;
69849;PMS5003;57144;39.652;-75.770;2022-07-21T05:55:57;22;20;
69849;PMS5003;57144;39.652;-75.770;2022-07-21T05:58:27;19;19;
69849;PMS5003;57144;39.652;-75.770;2022-07-21T06:00:58;24;22;
69849;PMS5003;57144;39.652;-75.770;2022-07-21T06:03:28;21;20;
69849;PMS5003;57144;39.652;-75.770;2022-07-21T06:05:59;22;21;
69849;PMS5003;57144;39.652;-75.770;2022-07-21T06:08:30;18;18;
69849;PMS5003;57144;39.652;-75.770;2022-07-21T06:11:00;19;19;
69849;PMS5003;57144;39.652;-75.770;2022-07-21T06:13:31;22;21;
69849;PMS5003;57144;39.652;-75.770;2022-07-21T06:16:02;25;23;
69849;PMS5003;57144;39.652;-75.770;2022-07-21T06:18:33;22;22;
69849;PMS5003;57144;39.652;-75.770;2022-07-21T06:21:04;21;20;
69849;PMS5003;57144;39.652;-75.770;2022-07-21T06:23:34;20;20;
69849;PMS5003;57144;39.652;-75.770;2022-07-21T06:26:04;22;22;
69849;PMS5003;57144;39.652;-75.770;2022-07-21T06:28:35;21;20;
69849;PMS5003;57144;39.652;-75.770;2022-07-21T06:31:06;23;22;
69849;PMS5003;57144;39.652;-75.770;2022-07-21T06:36:10;22;20;
69849;PMS5003;57144;39.652;-75.770;2022-07-21T06:38:38;21;20;
69849;PMS5003;57144;39.652;-75.770;2022-07-21T06:41:08;22;21;
69849;PMS5003;57144;39.652;-75.770;2022-07-21T06:43:39;21;21;
69849;PMS5003;57144;39.652;-75.770;2022-07-21T06:46:10;23;21;
69849;PMS5003;57144;39.652;-75.770;2022-07-21T06:48:41;22;21;
69849;PMS5003;57144;39.652;-75.770;2022-07-21T06:51:11;21;21;
69849;PMS5003;57144;39.652;-75.770;2022-07-21T06:53:41;22;22;
69849;PMS5003;57144;39.652;-75.770;2022-07-21T06:56:12;23;21;
69849;PMS5003;57144;39.652;-75.770;2022-07-21T06:58:43;25;25;
69849;PMS5003;57144;39.652;-75.770;2022-07-21T07:01:13;23;22;
69849;PMS5003;57144;39.652;-75.770;2022-07-21T07:03:44;23;23;
69849;PMS5003;57144;39.652;-75.770;2022-07-21T07:06:15;24;22;
69849;PMS5003;57144;39.652;-75.770;2022-07-21T11:36:27;0;0;
69849;PMS5003;57144;39.652;-75.770;2022-07-21T11:38:56;21;21;
69849;PMS5003;57144;39.652;-75.770;2022-07-21T11:41:25;20;19;
69849;PMS5003;57144;39.652;-75.770;2022-07-21T11:43:56;21;21;
69849;PMS5003;57144;39.652;-75.770;2022-07-21T11:46:27;21;20;
69849;PMS5003;57144;39.652;-75.770;2022-07-21T11:49:01;20;19;
69849;PMS5003;57144;39.652;-75.770;2022-07-21T11:51:28;23;19;
69849;PMS5003;57144;39.652;-75.770;2022-07-21T11:53:59;20;20;
69849;PMS5003;57144;39.652;-75.770;2022-07-21T12:01:31;21;20;
69849;PMS5003;57144;39.652;-75.770;2022-07-21T12:04:01;21;20;
69849;PMS5003;57144;39.652;-75.770;2022-07-21T12:06:32;22;22;
69849;PMS5003;57144;39.652;-75.770;2022-07-21T12:09:03;22;22;
69849;PMS5003;57144;39.652;-75.770;2022-07-21T12:11:35;22;21;
69849;PMS5003;57144;39.652;-75.770;2022-07-21T12:14:05;21;20;
69849;PMS5003;57144;39.652;-75.770;2022-07-21T12:19:09;21;21;
69849;PMS5003;57144;39.652;-75.770;2022-07-21T12:24:06;20;20;
69849;PMS5003;57144;39.652;-75.770;2022-07-21T12:26:37;22;22;
69849;PMS5003;57144;39.652;-75.770;2022-07-21T12:29:08;21;21;
69849;PMS5003;57144;39.652;-75.770;2022-07-21T12:31:38;22;20;
69849;PMS5003;57144;39.652;-75.770;2022-07-21T12:34:11;23;22;
69849;PMS5003;57144;39.652;-75.770;2022-07-21T12:36:40;21;20;
69849;PMS5003;57144;39.652;-75.770;2022-07-21T12:39:14;22;21;
69849;PMS5003;57144;39.652;-75.770;2022-07-21T12:41:44;23;20;
69849;PMS5003;57144;39.652;-75.770;2022-07-21T12:44:11;23;21;
69849;PMS5003;57144;39.652;-75.770;2022-07-21T12:46:42;22;20;
69849;PMS5003;57144;39.652;-75.770;2022-07-21T12:49:13;20;20;
69849;PMS5003;57144;39.652;-75.770;2022-07-21T12:51:43;20;20;
69849;PMS5003;57144;39.652;-75.770;2022-07-21T12:54:14;21;20;
69849;PMS5003;57144;39.652;-75.770;2022-07-21T12:56:45;20;19;
69849;PMS5003;57144;39.652;-75.770;2022-07-21T12:59:15;20;19;
69849;PMS5003;57144;39.652;-75.770;2022-07-21T13:01:46;25;21;
69849;PMS5003;57144;39.652;-75.770;2022-07-21T13:04:17;23;21;
69849;PMS5003;57144;39.652;-75.770;2022-07-21T13:06:48;20;20;
69849;PMS5003;57144;39.652;-75.770;2022-07-21T13:09:18;23;21;
69849;PMS5003;57144;39.652;-75.770;2022-07-21T13:11:49;21;20;
69849;PMS5003;57144;39.652;-75.770;2022-07-21T13:14:19;19;18;
69849;PMS5003;57144;39.652;-75.770;2022-07-21T13:16:50;22;21;
69849;PMS5003;57144;39.652;-75.770;2022-07-21T13:19:21;23;19;
69849;PMS5003;57144;39.652;-75.770;2022-07-21T13:21:51;22;20;
69849;PMS5003;57144;39.652;-75.770;2022-07-21T13:24:22;25;21;
69849;PMS5003;57144;39.652;-75.770;2022-07-21T13:26:53;20;20;
69849;PMS5003;57144;39.652;-75.770;2022-07-21T13:29:23;23;21;
69849;PMS5003;57144;39.652;-75.770;2022-07-21T13:31:54;21;21;
69849;PMS5003;57144;39.652;-75.770;2022-07-21T13:34:24;22;21;
69849;PMS5003;57144;39.652;-75.770;2022-07-21T13:36:56;21;20;
69849;PMS5003;57144;39.652;-75.770;2022-07-21T13:39:26;22;21;
69849;PMS5003;57144;39.652;-75.770;2022-07-21T13:41:56;23;20;
69849;PMS5003;57144;39.652;-75.770;2022-07-21T13:44:27;23;22;
69849;PMS5003;57144;39.652;-75.770;2022-07-21T13:46:58;24;21;
69849;PMS5003;57144;39.652;-75.770;2022-07-21T13:49:28;23;22;
69849;PMS5003;57144;39.652;-75.770;2022-07-21T13:52:01;23;21;
69849;PMS5003;57144;39.652;-75.770;2022-07-21T13:54:30;23;21;
69849;PMS5003;57144;39.652;-75.770;2022-07-21T13:57:00;22;22;
69849;PMS5003;57144;39.652;-75.770;2022-07-21T13:59:31;24;22;
69849;PMS5003;57144;39.652;-75.770;2022-07-21T14:02:03;22;21;
69849;PMS5003;57144;39.652;-75.770;2022-07-21T14:04:32;24;21;
69849;PMS5003;57144;39.652;-75.770;2022-07-21T14:07:03;24;23;
69849;PMS5003;57144;39.652;-75.770;2022-07-21T14:09:34;25;25;
69849;PMS5003;57144;39.652;-75.770;2022-07-21T14:12:04;23;22;
69849;PMS5003;57144;39.652;-75.770;2022-07-21T14:14:35;25;23;
69849;PMS5003;57144;39.652;-75.770;2022-07-21T14:17:06;23;22;
69849;PMS5003;57144;39.652;-75.770;2022-07-21T14:19:36;24;22;
69849;PMS5003;57144;39.652;-75.770;2022-07-21T14:22:07;22;22;
69849;PMS5003;57144;39.652;-75.770;2022-07-21T14:24:38;23;21;
69849;PMS5003;57144;39.652;-75.770;2022-07-21T14:27:08;24;22;
69849;PMS5003;57144;39.652;-75.770;2022-07-21T14:29:41;25;25;
69849;PMS5003;57144;39.652;-75.770;2022-07-21T14:32:10;24;24;
69849;PMS5003;57144;39.652;-75.770;2022-07-21T14:34:40;23;23;
69849;PMS5003;57144;39.652;-75.770;2022-07-21T14:37:11;25;23;
69849;PMS5003;57144;39.652;-75.770;2022-07-21T14:39:42;24;23;
69849;PMS5003;57144;39.652;-75.770;2022-07-21T14:42:12;23;22;
69849;PMS5003;57144;39.652;-75.770;2022-07-21T14:44:44;24;23;
69849;PMS5003;57144;39.652;-75.770;2022-07-21T14:47:14;24;22;
69849;PMS5003;57144;39.652;-75.770;2022-07-21T14:49:44;23;23;
69849;PMS5003;57144;39.652;-75.770;2022-07-21T14:52:15;21;21;
69849;PMS5003;57144;39.652;-75.770;2022-07-21T14:54:46;24;22;
69849;PMS5003;57144;39.652;-75.770;2022-07-21T14:57:16;22;21;
69849;PMS5003;57144;39.652;-75.770;2022-07-21T14:59:47;23;22;
69849;PMS5003;57144;39.652;-75.770;2022-07-21T15:02:18;24;24;
69849;PMS5003;57144;39.652;-75.770;2022-07-21T15:04:49;25;23;
69849;PMS5003;57144;39.652;-75.770;2022-07-21T15:07:19;24;23;
69849;PMS5003;57144;39.652;-75.770;2022-07-21T15:09:50;24;23;
69849;PMS5003;57144;39.652;-75.770;2022-07-21T15:12:20;24;24;
69849;PMS5003;57144;39.652;-75.770;2022-07-21T15:14:51;25;22;
69849;PMS5003;57144;39.652;-75.770;2022-07-21T15:17:22;24;24;
69849;PMS5003;57144;39.652;-75.770;2022-07-21T15:19:52;23;23;
69849;PMS5003;57144;39.652;-75.770;2022-07-21T15:22:23;26;25;
69849;PMS5003;57144;39.652;-75.770;2022-07-21T15:24:55;25;23;
69849;PMS5003;57144;39.652;-75.770;2022-07-21T15:27:25;24;24;
69849;PMS5003;57144;39.652;-75.770;2022-07-21T15:29:55;22;22;
69849;PMS5003;57144;39.652;-75.770;2022-07-21T15:32:26;24;22;
69849;PMS5003;57144;39.652;-75.770;2022-07-21T15:34:57;25;25;
69849;PMS5003;57144;39.652;-75.770;2022-07-21T15:37:28;27;24;
69849;PMS5003;57144;39.652;-75.770;2022-07-21T15:39:58;24;23;
69849;PMS5003;57144;39.652;-75.770;2022-07-21T15:42:29;23;22;
69849;PMS5003;57144;39.652;-75.770;2022-07-21T15:45:00;25;24;
69849;PMS5003;57144;39.652;-75.770;2022-07-21T15:47:30;24;23;
69849;PMS5003;57144;39.652;-75.770;2022-07-21T15:50:01;26;23;
69849;PMS5003;57144;39.652;-75.770;2022-07-21T15:52:32;23;22;
69849;PMS5003;57144;39.652;-75.770;2022-07-21T15:55:03;22;22;
69849;PMS5003;57144;39.652;-75.770;2022-07-21T15:57:34;23;22;
69849;PMS5003;57144;39.652;-75.770;2022-07-21T16:00:05;24;23;
69849;PMS5003;57144;39.652;-75.770;2022-07-21T16:02:35;26;25;
69849;PMS5003;57144;39.652;-75.770;2022-07-21T16:05:06;26;23;
69849;PMS5003;57144;39.652;-75.770;2022-07-21T16:07:37;26;24;
69849;PMS5003;57144;39.652;-75.770;2022-07-21T16:10:08;26;25;
69849;PMS5003;57144;39.652;-75.770;2022-07-21T16:12:38;23;21;
69849;PMS5003;57144;39.652;-75.770;2022-07-21T16:15:09;24;24;
69849;PMS5003;57144;39.652;-75.770;2022-07-21T16:17:39;24;24;
69849;PMS5003;57144;39.652;-75.770;2022-07-21T16:20:11;25;25;
69849;PMS5003;57144;39.652;-75.770;2022-07-21T16:22:42;25;25;
69849;PMS5003;57144;39.652;-75.770;2022-07-21T16:25:12;24;23;
69849;PMS5003;57144;39.652;-75.770;2022-07-21T16:27:42;26;24;
69849;PMS5003;57144;39.652;-75.770;2022-07-21T16:30:13;26;26;
69849;PMS5003;57144;39.652;-75.770;2022-07-21T16:32:44;25;25;
69849;PMS5003;57144;39.652;-75.770;2022-07-21T16:35:14;26;24;
69849;PMS5003;57144;39.652;-75.770;2022-07-21T16:37:46;26;26;
69849;PMS5003;57144;39.652;-75.770;2022-07-21T16:40:16;25;25;
69849;PMS5003;57144;39.652;-75.770;2022-07-21T16:42:48;26;25;
69849;PMS5003;57144;39.652;-75.770;2022-07-21T16:45:18;25;25;
69849;PMS5003;57144;39.652;-75.770;2022-07-21T16:47:48;22;20;
69849;PMS5003;57144;39.652;-75.770;2022-07-21T16:50:19;25;24;
69849;PMS5003;57144;39.652;-75.770;2022-07-21T16:52:50;24;24;
69849;PMS5003;57144;39.652;-75.770;2022-07-21T16:55:21;27;25;
69849;PMS5003;57144;39.652;-75.770;2022-07-21T16:57:51;27;26;
69849;PMS5003;57144;39.652;-75.770;2022-07-21T17:00:22;24;24;
69849;PMS5003;57144;39.652;-75.770;2022-07-21T17:02:53;26;24;
69849;PMS5003;57144;39.652;-75.770;2022-07-21T17:05:23;25;24;
69849;PMS5003;57144;39.652;-75.770;2022-07-21T17:07:54;27;26;
69849;PMS5003;57144;39.652;-75.770;2022-07-21T17:10:25;26;25;
69849;PMS5003;57144;39.652;-75.770;2022-07-21T17:12:55;25;25;
69849;PMS5003;57144;39.652;-75.770;2022-07-21T17:15:26;25;24;
69849;PMS5003;57144;39.652;-75.770;2022-07-21T17:17:57;26;26;
69849;PMS5003;57144;39.652;-75.770;2022-07-21T17:20:28;27;25;
69849;PMS5003;57144;39.652;-75.770;2022-07-21T17:22:58;26;25;
69849;PMS5003;57144;39.652;-75.770;2022-07-21T17:25:29;29;28;
69849;PMS5003;57144;39.652;-75.770;2022-07-21T17:28:00;27;26;
69849;PMS5003;57144;39.652;-75.770;2022-07-21T17:30:31;26;24;
69849;PMS5003;57144;39.652;-75.770;2022-07-21T17:33:01;27;24;
69849;PMS5003;57144;39.652;-75.770;2022-07-21T17:35:32;24;22;
69849;PMS5003;57144;39.652;-75.770;2022-07-21T17:38:03;23;21;
69849;PMS5003;57144;39.652;-75.770;2022-07-21T17:40:34;22;21;
69849;PMS5003;57144;39.652;-75.770;2022-07-21T17:43:04;20;20;
69849;PMS5003;57144;39.652;-75.770;2022-07-21T17:45:35;21;20;
69849;PMS5003;57144;39.652;-75.770;2022-07-21T17:48:06;20;20;
69849;PMS5003;57144;39.652;-75.770;2022-07-21T17:50:36;24;23;
69849;PMS5003;57144;39.652;-75.770;2022-07-21T17:53:07;22;21;
69849;PMS5003;57144;39.652;-75.770;2022-07-21T17:55:38;18;17;
69849;PMS5003;57144;39.652;-75.770;2022-07-21T17:58:08;18;18;
69849;PMS5003;57144;39.652;-75.770;2022-07-21T18:00:39;17;17;
69849;PMS5003;57144;39.652;-75.770;2022-07-21T18:03:10;16;15;
69849;PMS5003;57144;39.652;-75.770;2022-07-21T18:05:41;17;17;
69849;PMS5003;57144;39.652;-75.770;2022-07-21T18:08:12;19;18;
69849;PMS5003;57144;39.652;-75.770;2022-07-21T18:10:42;15;14;
69849;PMS5003;57144;39.652;-75.770;2022-07-21T18:13:13;13;12;
69849;PMS5003;57144;39.652;-75.770;2022-07-21T18:15:43;9;9;
69849;PMS5003;57144;39.652;-75.770;2022-07-21T18:18:14;10;9;
69849;PMS5003;57144;39.652;-75.770;2022-07-21T18:20:45;8;8;
69849;PMS5003;57144;39.652;-75.770;2022-07-21T18:23:15;7;7;
69849;PMS5003;57144;39.652;-75.770;2022-07-21T18:25:46;9;9;
69849;PMS5003;57144;39.652;-75.770;2022-07-21T18:28:17;13;13;
69849;PMS5003;57144;39.652;-75.770;2022-07-21T18:30:48;11;11;
69849;PMS5003;57144;39.652;-75.770;2022-07-21T18:33:18;14;9;
69849;PMS5003;57144;39.652;-75.770;2022-07-21T18:35:49;10;10;
69849;PMS5003;57144;39.652;-75.770;2022-07-21T18:38:20;12;11;
69849;PMS5003;57144;39.652;-75.770;2022-07-21T18:40:51;9;9;
69849;PMS5003;57144;39.652;-75.770;2022-07-21T18:43:21;9;8;
69849;PMS5003;57144;39.652;-75.770;2022-07-21T18:45:52;14;11;
69849;PMS5003;57144;39.652;-75.770;2022-07-21T18:48:23;10;8;
69849;PMS5003;57144;39.652;-75.770;2022-07-21T18:50:54;9;8;
69849;PMS5003;57144;39.652;-75.770;2022-07-21T18:53:24;11;9;
69849;PMS5003;57144;39.652;-75.770;2022-07-21T18:55:55;11;11;
69849;PMS5003;57144;39.652;-75.770;2022-07-21T18:58:26;6;6;
69849;PMS5003;57144;39.652;-75.770;2022-07-21T19:00:56;6;6;
69849;PMS5003;57144;39.652;-75.770;2022-07-21T19:03:27;7;7;
69849;PMS5003;57144;39.652;-75.770;2022-07-21T19:05:58;7;7;
69849;PMS5003;57144;39.652;-75.770;2022-07-21T19:08:29;8;8;
69849;PMS5003;57144;39.652;-75.770;2022-07-21T19:10:59;7;7;
69849;PMS5003;57144;39.652;-75.770;2022-07-21T19:13:30;8;8;
69849;PMS5003;57144;39.652;-75.770;2022-07-21T19:16:01;7;7;
69849;PMS5003;57144;39.652;-75.770;2022-07-21T19:18:32;9;8;
69849;PMS5003;57144;39.652;-75.770;2022-07-21T19:21:02;5;5;
69849;PMS5003;57144;39.652;-75.770;2022-07-21T19:23:33;7;7;
69849;PMS5003;57144;39.652;-75.770;2022-07-21T19:26:04;7;7;
69849;PMS5003;57144;39.652;-75.770;2022-07-21T19:28:35;6;6;
69849;PMS5003;57144;39.652;-75.770;2022-07-21T19:31:06;7;7;
69849;PMS5003;57144;39.652;-75.770;2022-07-21T19:33:36;6;6;
69849;PMS5003;57144;39.652;-75.770;2022-07-21T19:36:08;7;7;
69849;PMS5003;57144;39.652;-75.770;2022-07-21T19:38:38;6;6;
69849;PMS5003;57144;39.652;-75.770;2022-07-21T19:41:08;7;7;
69849;PMS5003;57144;39.652;-75.770;2022-07-21T19:43:39;9;8;
69849;PMS5003;57144;39.652;-75.770;2022-07-21T19:46:10;6;6;
69849;PMS5003;57144;39.652;-75.770;2022-07-21T19:48:41;7;7;
69849;PMS5003;57144;39.652;-75.770;2022-07-21T19:51:11;4;4;
69849;PMS5003;57144;39.652;-75.770;2022-07-21T19:53:42;8;8;
69849;PMS5003;57144;39.652;-75.770;2022-07-21T19:56:13;8;8;
69849;PMS5003;57144;39.652;-75.770;2022-07-21T19:58:43;7;6;
69849;PMS5003;57144;39.652;-75.770;2022-07-21T20:01:14;7;7;
69849;PMS5003;57144;39.652;-75.770;2022-07-21T20:03:45;8;8;
69849;PMS5003;57144;39.652;-75.770;2022-07-21T20:06:15;9;9;
69849;PMS5003;57144;39.652;-75.770;2022-07-21T20:08:46;7;7;
69849;PMS5003;57144;39.652;-75.770;2022-07-21T20:11:17;5;5;
69849;PMS5003;57144;39.652;-75.770;2022-07-21T20:13:48;8;8;
69849;PMS5003;57144;39.652;-75.770;2022-07-21T20:16:18;8;8;
69849;PMS5003;57144;39.652;-75.770;2022-07-21T20:18:49;8;7;
69849;PMS5003;57144;39.652;-75.770;2022-07-21T20:21:20;6;6;
69849;PMS5003;57144;39.652;-75.770;2022-07-21T20:23:51;8;8;
69849;PMS5003;57144;39.652;-75.770;2022-07-21T20:26:21;9;9;
69849;PMS5003;57144;39.652;-75.770;2022-07-21T20:28:52;7;7;
69849;PMS5003;57144;39.652;-75.770;2022-07-21T20:31:23;7;6;
69849;PMS5003;57144;39.652;-75.770;2022-07-21T20:33:53;7;7;
69849;PMS5003;57144;39.652;-75.770;2022-07-21T20:36:24;7;7;
69849;PMS5003;57144;39.652;-75.770;2022-07-21T20:38:55;7;7;
69849;PMS5003;57144;39.652;-75.770;2022-07-21T20:41:26;8;8;
69849;PMS5003;57144;39.652;-75.770;2022-07-21T20:43:56;7;7;
69849;PMS5003;57144;39.652;-75.770;2022-07-21T20:46:27;8;8;
69849;PMS5003;57144;39.652;-75.770;2022-07-21T20:48:58;11;11;
69849;PMS5003;57144;39.652;-75.770;2022-07-21T20:51:29;9;9;
69849;PMS5003;57144;39.652;-75.770;2022-07-21T20:54:00;10;10;